Time;durP1;ratioP1;P1;durP2;ratioP2;P2;SDS_P1;SDS_P2;PMS_P1;PMS_P2;Temp;Humidity;BMP_temperature;BMP_pressure;BME280_temperature;BME280_humidity;BME280_pressure;Samples;Min_cycle;Max_cycle;Signal;HPM_P1;HPM_P2
2023/10/25 00:00:57;;;;;;;5.20;2.20;;;;;;;8.61;100.00;100118.69;5031832;28;20025;-81
2023/10/25 00:03:22;;;;;;;4.15;2.10;;;;;;;8.60;100.00;100114.38;5032671;28;20472;-81
2023/10/25 00:05:47;;;;;;;3.72;1.95;;;;;;;8.58;100.00;100111.00;5033763;28;20029;-81
2023/10/25 00:08:13;;;;;;;3.38;2.08;;;;;;;8.57;100.00;100114.47;5031470;28;20030;-81
2023/10/25 00:10:38;;;;;;;4.40;2.03;;;;;;;8.55;100.00;100105.06;5014462;28;20033;-81
2023/10/25 00:13:03;;;;;;;3.22;1.95;;;;;;;8.52;100.00;100100.81;5031375;28;20053;-81
2023/10/25 00:15:29;;;;;;;4.78;2.10;;;;;;;8.50;100.00;100102.59;5030589;28;20029;-81
2023/10/25 00:17:54;;;;;;;4.80;1.88;;;;;;;8.47;100.00;100103.50;5031484;28;20037;-81
2023/10/25 00:20:19;;;;;;;4.97;1.90;;;;;;;8.47;100.00;100102.66;5031321;28;20073;-81
2023/10/25 00:22:45;;;;;;;3.90;1.83;;;;;;;8.45;100.00;100101.84;5028791;28;20037;-81
2023/10/25 00:25:10;;;;;;;3.33;1.73;;;;;;;8.44;100.00;100102.72;5031771;28;20033;-81
2023/10/25 00:27:35;;;;;;;5.50;2.10;;;;;;;8.41;100.00;100097.63;5031667;28;20029;-81
2023/10/25 00:30:01;;;;;;;4.13;2.13;;;;;;;8.40;100.00;100093.34;5031390;28;20420;-81
2023/10/25 00:32:26;;;;;;;5.93;1.90;;;;;;;8.39;100.00;100089.91;5030840;28;20025;-81
2023/10/25 00:34:51;;;;;;;3.08;1.95;;;;;;;8.37;100.00;100085.69;5030869;28;20375;-81
2023/10/25 00:37:16;;;;;;;4.60;2.00;;;;;;;8.37;100.00;100085.69;5031484;28;20029;-81
2023/10/25 00:39:42;;;;;;;3.17;1.70;;;;;;;8.36;100.00;100090.00;5030605;28;20045;-81
2023/10/25 00:42:07;;;;;;;3.03;1.85;;;;;;;8.35;100.00;100090.88;5032548;28;20048;-81
2023/10/25 00:44:32;;;;;;;5.32;1.77;;;;;;;8.33;100.00;100090.94;5034836;28;20155;-81
2023/10/25 00:46:58;;;;;;;5.75;1.80;;;;;;;8.31;100.00;100092.72;5035551;28;20052;-81
2023/10/25 00:49:24;;;;;;;5.40;1.80;;;;;;;8.32;100.00;100094.44;5042696;28;20029;-81
2023/10/25 00:51:50;;;;;;;6.00;2.00;;;;;;;8.30;100.00;100091.03;5034490;28;20183;-81
2023/10/25 00:54:16;;;;;;;4.05;1.75;;;;;;;8.30;100.00;100091.03;5033679;28;20039;-81
2023/10/25 00:56:42;;;;;;;3.47;1.85;;;;;;;8.28;100.00;100095.41;5032252;28;20032;-81
2023/10/25 00:59:10;;;;;;;4.55;2.05;;;;;;;8.26;100.00;100094.59;5034078;28;20039;-81
2023/10/25 01:01:36;;;;;;;3.40;1.83;;;;;;;8.27;100.00;100095.47;5032773;28;20468;-81
2023/10/25 01:04:02;;;;;;;3.90;1.80;;;;;;;8.24;100.00;100091.19;5033992;28;20108;-81
2023/10/25 01:06:27;;;;;;;7.63;2.45;;;;;;;8.23;100.00;100086.91;5033933;28;20112;-81
2023/10/25 01:08:53;;;;;;;4.68;2.17;;;;;;;8.23;100.00;100088.66;5033462;28;20387;-81
2023/10/25 01:11:18;;;;;;;5.05;1.95;;;;;;;8.22;100.00;100082.59;5035104;28;20104;-81
2023/10/25 01:13:43;;;;;;;4.72;2.00;;;;;;;8.21;100.00;100086.09;5034122;28;20044;-81
2023/10/25 01:16:08;;;;;;;3.85;2.00;;;;;;;8.22;100.00;100084.38;5034538;28;20102;-81
2023/10/25 01:18:34;;;;;;;2.80;1.70;;;;;;;8.20;100.00;100074.03;5033422;28;20034;-81
2023/10/25 01:20:59;;;;;;;3.78;1.52;;;;;;;8.19;100.00;100069.75;5034822;28;20031;-81
2023/10/25 01:23:24;;;;;;;3.92;1.92;;;;;;;8.19;100.00;100067.16;5044317;28;20024;-81
2023/10/25 01:25:50;;;;;;;4.10;1.90;;;;;;;8.17;100.00;100062.00;5036726;28;20026;-81
2023/10/25 01:28:15;;;;;;;3.28;1.70;;;;;;;8.17;100.00;100069.78;5035974;28;20033;-82
2023/10/25 01:30:40;;;;;;;6.05;1.80;;;;;;;8.16;100.00;100068.09;5034872;28;20056;-81
2023/10/25 01:33:07;;;;;;;4.68;1.70;;;;;;;8.15;100.00;100070.75;5042567;28;20068;-81
2023/10/25 01:35:33;;;;;;;4.40;1.70;;;;;;;8.14;100.00;100061.25;5041276;28;20452;-81
2023/10/25 01:37:58;;;;;;;3.15;1.48;;;;;;;8.14;100.00;100059.50;5034483;28;20477;-81
2023/10/25 01:40:24;;;;;;;3.28;1.60;;;;;;;8.13;100.00;100051.78;5034192;28;20055;-81
2023/10/25 01:42:54;;;;;;;3.72;1.73;;;;;;;8.12;100.00;100050.94;5015575;28;20048;-81
2023/10/25 01:45:21;;;;;;;3.90;1.75;;;;;;;8.11;100.00;100046.66;5034212;28;20091;-81
2023/10/25 01:47:47;;;;;;;2.88;1.50;;;;;;;8.11;100.00;100044.06;5034375;28;20057;-81
2023/10/25 01:50:12;;;;;;;4.15;1.50;;;;;;;8.11;100.00;100027.66;5034204;28;20130;-81
2023/10/25 01:52:37;;;;;;;3.83;1.48;;;;;;;8.10;100.00;100029.41;5033293;28;20041;-81
2023/10/25 01:55:03;;;;;;;3.50;1.40;;;;;;;8.11;100.00;100032.84;5032195;28;20431;-81
2023/10/25 01:57:28;;;;;;;3.72;1.48;;;;;;;8.10;100.00;100025.97;5033650;28;20033;-81
2023/10/25 01:59:53;;;;;;;2.78;1.48;;;;;;;8.09;100.00;100024.25;5032247;28;20033;-81
2023/10/25 02:02:19;;;;;;;2.42;1.40;;;;;;;8.07;100.00;100021.72;5032367;28;20029;-81
2023/10/25 02:04:44;;;;;;;3.15;1.50;;;;;;;8.07;100.00;100018.28;5031618;28;20053;-81
2023/10/25 02:07:10;;;;;;;4.30;1.55;;;;;;;8.05;100.00;100020.91;5033807;28;20029;-81
2023/10/25 02:09:35;;;;;;;3.33;1.50;;;;;;;8.03;100.00;100014.94;5034050;28;20496;-81
2023/10/25 02:12:01;;;;;;;3.92;1.60;;;;;;;8.02;100.00;100003.75;5036858;28;20076;-81
2023/10/25 02:14:26;;;;;;;3.90;1.63;;;;;;;8.01;100.00;99996.84;5031902;28;20511;-81
2023/10/25 02:16:51;;;;;;;6.35;1.80;;;;;;;8.01;100.00;100007.22;5032786;28;20028;-81
2023/10/25 02:19:17;;;;;;;3.10;1.50;;;;;;;8.00;100.00;100004.66;5032038;28;20040;-81
2023/10/25 02:21:42;;;;;;;2.72;1.52;;;;;;;8.00;100.00;100004.66;5032512;28;20087;-81
2023/10/25 02:24:10;;;;;;;2.83;1.77;;;;;;;7.99;100.00;99996.06;5030397;28;20032;-81
2023/10/25 02:26:36;;;;;;;5.43;1.85;;;;;;;8.00;100.00;100005.53;5032747;28;20022;-81
2023/10/25 02:29:01;;;;;;;3.53;1.58;;;;;;;8.01;100.00;100009.81;5032039;28;20036;-81
2023/10/25 02:31:26;;;;;;;3.65;1.55;;;;;;;8.02;100.00;100003.75;5031613;28;20037;-81
2023/10/25 02:33:52;;;;;;;3.75;1.70;;;;;;;8.04;100.00;100001.94;5031266;28;20239;-81
2023/10/25 02:36:17;;;;;;;3.33;1.60;;;;;;;8.05;100.00;99993.25;5030992;28;20062;-81
2023/10/25 02:38:42;;;;;;;3.78;1.70;;;;;;;8.06;100.00;99996.72;5032878;28;20060;-81
2023/10/25 02:41:08;;;;;;;2.85;1.55;;;;;;;8.07;100.00;99995.81;5033021;28;20039;-81
2023/10/25 02:43:34;;;;;;;3.33;1.70;;;;;;;8.08;100.00;99987.16;5032177;28;20440;-81
2023/10/25 02:46:05;;;;;;;5.00;1.60;;;;;;;8.10;100.00;99987.09;5032746;28;20376;-81
2023/10/25 02:48:31;;;;;;;6.57;1.75;;;;;;;8.11;100.00;99981.03;5032584;28;20423;-81
2023/10/25 02:50:59;;;;;;;4.97;1.88;;;;;;;8.09;100.00;99969.88;5032646;28;20025;-81
2023/10/25 02:53:24;;;;;;;7.75;2.00;;;;;;;8.10;100.00;99977.59;5031910;28;20020;-81
2023/10/25 02:55:50;;;;;;;7.85;2.03;;;;;;;8.11;100.00;99971.53;5031333;28;20037;-81
2023/10/25 02:58:15;;;;;;;6.80;1.95;;;;;;;8.12;100.00;99956.81;5032751;28;20021;-81
2023/10/25 03:00:41;;;;;;;6.22;2.20;;;;;;;8.11;100.00;99953.41;5031184;28;20025;-81
2023/10/25 03:03:07;;;;;;;5.28;2.28;;;;;;;8.11;100.00;99957.72;5032634;28;20162;-81
2023/10/25 03:05:32;;;;;;;7.47;2.45;;;;;;;8.10;100.00;99949.13;5030022;28;20033;-81
2023/10/25 03:07:57;;;;;;;5.15;1.80;;;;;;;8.11;100.00;99947.34;5029935;28;20025;-81
2023/10/25 03:10:22;;;;;;;5.18;2.00;;;;;;;8.09;100.00;99941.38;5031626;28;20036;-81
2023/10/25 03:12:48;;;;;;;6.45;2.00;;;;;;;8.07;100.00;99944.00;5031706;28;20074;-81
2023/10/25 03:15:13;;;;;;;9.18;2.10;;;;;;;8.06;100.00;99944.91;5031013;28;20028;-81
2023/10/25 03:17:38;;;;;;;6.95;2.10;;;;;;;8.05;100.00;99941.44;5030035;28;20017;-81
2023/10/25 03:20:04;;;;;;;4.18;2.25;;;;;;;8.05;100.00;99936.28;5031384;28;20022;-81
2023/10/25 03:22:31;;;;;;;5.63;1.88;;;;;;;8.04;100.00;99928.56;5030941;28;20029;-81
2023/10/25 03:24:57;;;;;;;5.97;2.22;;;;;;;8.03;100.00;99926.88;5029256;28;20103;-81
2023/10/25 03:27:22;;;;;;;5.45;2.00;;;;;;;8.02;100.00;99928.63;5030189;28;20492;-81
2023/10/25 03:29:48;;;;;;;6.35;2.25;;;;;;;8.02;100.00;99928.63;5029478;28;20031;-81
2023/10/25 03:32:13;;;;;;;6.28;2.35;;;;;;;8.02;100.00;99923.44;5030572;28;20389;-81
2023/10/25 03:34:38;;;;;;;4.38;1.98;;;;;;;8.04;100.00;99924.22;5030605;28;20104;-81
2023/10/25 03:37:04;;;;;;;6.38;2.40;;;;;;;8.07;100.00;99927.59;5029334;28;20048;-81
2023/10/25 03:39:30;;;;;;;7.80;2.30;;;;;;;8.05;100.00;99914.72;5012262;28;20175;-81
2023/10/25 03:41:55;;;;;;;4.40;2.10;;;;;;;8.05;100.00;99925.91;5013120;28;20051;-81
2023/10/25 03:44:21;;;;;;;5.90;2.25;;;;;;;8.05;100.00;99915.56;5029042;28;20599;-81
2023/10/25 03:46:47;;;;;;;6.93;2.20;;;;;;;8.07;100.00;99917.25;5029030;28;20495;-81
2023/10/25 03:49:12;;;;;;;5.40;2.20;;;;;;;8.09;100.00;99920.66;5029652;28;20029;-81
2023/10/25 03:51:37;;;;;;;3.72;2.05;;;;;;;8.07;100.00;99918.13;5037175;28;20013;-81
2023/10/25 03:54:03;;;;;;;3.70;1.98;;;;;;;8.09;100.00;99905.97;5031401;28;20372;-81
2023/10/25 03:56:28;;;;;;;3.85;2.00;;;;;;;8.10;100.00;99909.38;5031629;28;20017;-81
2023/10/25 03:58:53;;;;;;;5.05;2.08;;;;;;;8.10;100.00;99902.47;5035607;28;20021;-81
2023/10/25 04:01:19;;;;;;;6.13;1.98;;;;;;;8.13;100.00;99907.53;5034146;28;20204;-81
2023/10/25 04:03:44;;;;;;;4.18;1.90;;;;;;;8.13;100.00;99902.38;5038612;28;20018;-81
2023/10/25 04:06:09;;;;;;;3.72;1.75;;;;;;;8.13;100.00;99896.34;5036616;28;20399;-81
2023/10/25 04:08:35;;;;;;;4.13;2.03;;;;;;;8.16;100.00;99901.44;5031933;28;20021;-81
2023/10/25 04:11:01;;;;;;;5.18;2.08;;;;;;;8.16;100.00;99899.69;5031163;28;20345;-81
2023/10/25 04:13:27;;;;;;;3.55;2.42;;;;;;;8.16;100.00;99897.09;5030847;28;20025;-81
2023/10/25 04:15:58;;;;;;;3.10;2.00;;;;;;;8.19;100.00;99896.16;5030663;28;20496;-81
2023/10/25 04:18:24;;;;;;;4.18;2.30;;;;;;;8.20;100.00;99882.28;5037382;28;20689;-81
2023/10/25 04:20:50;;;;;;;3.20;1.80;;;;;;;8.23;100.00;99882.19;5037448;28;20037;-81
2023/10/25 04:23:16;;;;;;;4.38;1.92;;;;;;;8.26;100.00;99883.88;5038321;28;20154;-81
2023/10/25 04:25:42;;;;;;;5.50;1.90;;;;;;;8.26;100.00;99883.88;5037457;28;20161;-81
2023/10/25 04:28:07;;;;;;;4.53;2.15;;;;;;;8.30;100.00;99882.84;5035817;28;20112;-81
2023/10/25 04:30:33;;;;;;;3.67;2.15;;;;;;;8.30;100.00;99883.72;5020052;28;20392;-81
2023/10/25 04:32:58;;;;;;;3.92;1.80;;;;;;;8.31;100.00;99885.41;5037033;28;20040;-81
2023/10/25 04:35:23;;;;;;;3.33;1.92;;;;;;;8.33;100.00;99893.13;5042113;28;20183;-81
2023/10/25 04:37:49;;;;;;;3.95;1.85;;;;;;;8.34;100.00;99887.03;5036167;28;20033;-81
2023/10/25 04:40:14;;;;;;;4.47;2.13;;;;;;;8.34;100.00;99884.44;5036705;28;20049;-81
2023/10/25 04:42:39;;;;;;;3.92;1.85;;;;;;;8.37;100.00;99883.53;5038100;28;20013;-81
2023/10/25 04:45:05;;;;;;;4.82;1.98;;;;;;;8.38;100.00;99877.41;5037610;28;20025;-81
2023/10/25 04:47:30;;;;;;;3.58;1.95;;;;;;;8.38;100.00;99878.28;5037886;28;20032;-81
2023/10/25 04:49:57;;;;;;;2.55;1.75;;;;;;;8.40;100.00;99878.22;5037968;28;20024;-81
2023/10/25 04:52:23;;;;;;;4.97;1.90;;;;;;;8.40;100.00;99875.63;5036335;28;20023;-81
2023/10/25 04:54:49;;;;;;;3.92;1.70;;;;;;;8.42;100.00;99873.84;5037113;28;20383;-81
2023/10/25 04:57:14;;;;;;;3.53;1.90;;;;;;;8.42;100.00;99860.88;5036495;28;20060;-81
2023/10/25 04:59:40;;;;;;;4.45;2.00;;;;;;;8.42;100.00;99861.75;5036399;28;20471;-81
2023/10/25 05:02:05;;;;;;;2.67;1.73;;;;;;;8.44;100.00;99857.34;5035174;28;20041;-81
2023/10/25 05:04:30;;;;;;;3.65;1.83;;;;;;;8.47;100.00;99851.22;5038081;28;20036;-81
2023/10/25 05:06:56;;;;;;;3.78;1.63;;;;;;;8.48;100.00;99855.53;5019121;28;20021;-81
2023/10/25 05:09:21;;;;;;;3.55;1.92;;;;;;;8.50;100.00;99851.16;5034984;28;20550;-81
2023/10/25 05:11:56;;;;;;;3.50;1.63;;;;;;;8.50;100.00;99843.38;5037386;28;20044;-81
2023/10/25 05:14:22;;;;;;;3.13;1.55;;;;;;;8.50;100.00;99838.19;5035741;28;20484;-81
2023/10/25 05:16:47;;;;;;;3.45;1.80;;;;;;;8.49;100.00;99826.13;5034984;28;20029;-81
2023/10/25 05:19:13;;;;;;;4.20;1.60;;;;;;;8.49;100.00;99823.53;5035916;28;20087;-81
2023/10/25 05:21:42;;;;;;;2.33;1.58;;;;;;;8.49;100.00;99826.13;5037277;28;20025;-81
2023/10/25 05:24:08;;;;;;;2.85;1.60;;;;;;;8.49;100.00;99828.72;5036483;28;20551;-81
2023/10/25 05:26:33;;;;;;;5.20;1.88;;;;;;;8.50;100.00;99817.44;5034392;28;20116;-81
2023/10/25 05:28:59;;;;;;;3.67;2.08;;;;;;;8.49;100.00;99814.00;5032178;28;20025;-81
2023/10/25 05:31:26;;;;;;;4.35;2.00;;;;;;;8.50;100.00;99814.88;5030516;28;20070;-81
2023/10/25 05:33:52;;;;;;;4.57;1.85;;;;;;;8.49;100.00;99814.00;5046332;28;20409;-81
2023/10/25 05:36:18;;;;;;;2.63;1.70;;;;;;;8.49;100.00;99810.56;5034603;28;20096;-81
2023/10/25 05:38:43;;;;;;;4.53;1.60;;;;;;;8.49;100.00;99806.22;5033466;28;20095;-81
2023/10/25 05:41:15;;;;;;;2.47;1.60;;;;;;;8.48;100.00;99804.53;5030598;28;20511;-81
2023/10/25 05:43:42;;;;;;;3.00;1.83;;;;;;;8.47;100.00;99801.97;5031918;28;20025;-81
2023/10/25 05:46:08;;;;;;;3.50;1.63;;;;;;;8.46;100.00;99795.09;5017379;28;20492;-81
2023/10/25 05:48:33;;;;;;;4.07;1.80;;;;;;;8.47;100.00;99799.38;5029093;28;20025;-81
2023/10/25 05:51:03;;;;;;;2.50;1.52;;;;;;;8.45;100.00;99794.25;5031907;28;20155;-81
2023/10/25 05:53:29;;;;;;;4.63;1.60;;;;;;;8.46;100.00;99789.91;5030911;28;20059;-81
2023/10/25 05:55:54;;;;;;;4.03;1.60;;;;;;;8.47;100.00;99791.59;5033565;28;20061;-81
2023/10/25 05:58:20;;;;;;;2.67;1.60;;;;;;;8.48;100.00;99791.56;5034069;28;20034;-81
2023/10/25 06:00:49;;;;;;;2.83;1.70;;;;;;;8.49;100.00;99785.47;5029094;28;20025;-81
2023/10/25 06:03:18;;;;;;;2.97;1.60;;;;;;;8.49;100.00;99779.47;5012518;28;20014;-81
2023/10/25 06:05:44;;;;;;;6.45;1.80;;;;;;;8.52;100.00;99781.09;5028097;28;20033;-81
2023/10/25 06:08:10;;;;;;;3.78;1.80;;;;;;;8.51;100.00;99785.44;5030601;28;20033;-82
2023/10/25 06:10:35;;;;;;;3.28;1.60;;;;;;;8.52;100.00;99775.91;5029153;28;20037;-82
2023/10/25 06:13:01;;;;;;;2.72;1.60;;;;;;;8.51;100.00;99780.25;5032853;28;20076;-81
2023/10/25 06:15:26;;;;;;;4.60;1.70;;;;;;;8.51;100.00;99772.50;5032878;28;20373;-82
2023/10/25 06:17:51;;;;;;;5.82;1.70;;;;;;;8.53;100.00;99781.06;5032768;28;20025;-83
2023/10/25 06:20:19;;;;;;;4.57;1.58;;;;;;;8.54;100.00;99780.13;5031585;28;20048;-82
2023/10/25 06:22:45;;;;;;;2.60;1.60;;;;;;;8.53;100.00;99768.09;5013801;28;20010;-82
2023/10/25 06:25:10;;;;;;;3.88;1.77;;;;;;;8.54;100.00;99772.34;5034609;28;20035;-82
2023/10/25 06:27:35;;;;;;;2.90;1.70;;;;;;;8.56;100.00;99767.13;5030336;28;20029;-81
2023/10/25 06:30:01;;;;;;;4.53;1.48;;;;;;;8.59;100.00;99769.63;5031939;28;20022;-82
2023/10/25 06:32:26;;;;;;;3.55;1.50;;;;;;;8.61;100.00;99767.84;5029807;28;20473;-82
2023/10/25 06:34:51;;;;;;;2.15;1.30;;;;;;;8.61;100.00;99760.88;5029113;28;20029;-82
2023/10/25 06:37:17;;;;;;;2.47;1.30;;;;;;;8.63;100.00;99756.50;5032055;28;20044;-83
2023/10/25 06:39:43;;;;;;;2.83;1.25;;;;;;;8.65;100.00;99753.84;5026387;28;20784;-82
2023/10/25 06:42:10;;;;;;;3.50;1.50;;;;;;;8.65;100.00;99746.94;5026736;28;20025;-82
2023/10/25 06:44:36;;;;;;;2.95;1.40;;;;;;;8.68;100.00;99742.53;5009211;28;20017;-82
2023/10/25 06:47:03;;;;;;;2.67;1.42;;;;;;;8.68;100.00;99735.59;5008229;28;20029;-82
2023/10/25 06:49:29;;;;;;;2.58;1.42;;;;;;;8.68;100.00;99730.41;5027520;28;20099;-82
2023/10/25 06:51:54;;;;;;;2.75;1.58;;;;;;;8.69;100.00;99723.50;5022702;28;20484;-82
2023/10/25 06:54:20;;;;;;;2.22;1.42;;;;;;;8.68;100.00;99722.63;5025436;28;20028;-82
2023/10/25 06:56:45;;;;;;;5.68;1.42;;;;;;;8.70;100.00;99717.41;5026428;28;20550;-82
2023/10/25 06:59:11;;;;;;;3.45;1.30;;;;;;;8.70;100.00;99714.81;5026036;28;20135;-82
2023/10/25 07:01:43;;;;;;;2.53;1.35;;;;;;;8.70;100.00;99717.41;5024339;28;20476;-82
2023/10/25 07:04:12;;;;;;;;;;;;;;;8.73;100.00;99709.47;5025791;28;20476;-82
2023/10/25 07:06:39;;;;;;;3.30;1.30;;;;;;;8.71;100.00;99700.94;5027054;28;20028;-83
2023/10/25 07:09:04;;;;;;;3.20;1.25;;;;;;;8.70;100.00;99692.31;5017794;28;20032;-82
2023/10/25 07:11:30;;;;;;;2.45;1.30;;;;;;;8.70;100.00;99699.25;5026108;28;20036;-82
2023/10/25 07:13:55;;;;;;;2.38;1.20;;;;;;;8.70;100.00;99688.88;5027317;28;20087;-81
2023/10/25 07:16:20;;;;;;;2.85;1.42;;;;;;;8.68;100.00;99685.50;5024199;28;20502;-80
2023/10/25 07:18:47;;;;;;;3.97;1.38;;;;;;;8.69;100.00;99695.78;5026005;28;20037;-81
2023/10/25 07:21:13;;;;;;;3.50;1.20;;;;;;;8.68;100.00;99685.50;5007640;28;20480;-81
2023/10/25 07:23:38;;;;;;;4.80;1.30;;;;;;;8.70;100.00;99679.34;5025726;28;20026;-81
2023/10/25 07:26:03;;;;;;;3.08;1.20;;;;;;;8.70;100.00;99681.09;5023939;28;20459;-81
2023/10/25 07:28:28;;;;;;;3.70;1.33;;;;;;;8.69;100.00;99676.81;5007995;28;20028;-81
2023/10/25 07:30:54;;;;;;;2.33;1.00;;;;;;;8.70;100.00;99673.31;5026853;28;20473;-81
2023/10/25 07:33:21;;;;;;;2.17;1.27;;;;;;;8.71;100.00;99669.81;5027432;28;20033;-81
2023/10/25 07:35:46;;;;;;;3.28;1.15;;;;;;;8.73;100.00;99668.00;5010143;28;20033;-81
2023/10/25 07:38:11;;;;;;;2.97;1.20;;;;;;;8.74;100.00;99664.50;5025882;28;20034;-81
2023/10/25 07:40:38;;;;;;;2.83;1.15;;;;;;;8.75;100.00;99663.59;5026834;28;20049;-81
2023/10/25 07:43:04;;;;;;;2.50;1.13;;;;;;;8.77;100.00;99662.66;5009509;28;20017;-81
2023/10/25 07:45:29;;;;;;;2.20;1.38;;;;;;;8.78;100.00;99655.72;5026494;28;20024;-81
2023/10/25 07:47:55;;;;;;;3.00;1.27;;;;;;;8.80;100.00;99664.28;5024070;28;20030;-81
2023/10/25 07:50:20;;;;;;;2.70;1.20;;;;;;;8.81;100.00;99660.78;5026137;28;20041;-81
2023/10/25 07:52:45;;;;;;;3.50;1.35;;;;;;;8.83;100.00;99648.63;5027707;28;20029;-81
2023/10/25 07:55:11;;;;;;;3.60;1.40;;;;;;;8.85;100.00;99641.63;5028441;28;20435;-81
2023/10/25 07:57:36;;;;;;;2.85;1.33;;;;;;;8.87;100.00;99654.53;5026784;28;20040;-81
2023/10/25 08:00:02;;;;;;;3.70;1.33;;;;;;;8.89;100.00;99642.34;5026009;28;20496;-81
2023/10/25 08:02:27;;;;;;;4.03;1.50;;;;;;;8.91;100.00;99641.38;5025049;28;20439;-81
2023/10/25 08:04:53;;;;;;;3.75;1.35;;;;;;;8.92;100.00;99634.44;5027229;28;20056;-81
2023/10/25 08:07:18;;;;;;;3.45;1.40;;;;;;;8.92;100.00;99631.84;5025034;28;20022;-81
2023/10/25 08:09:46;;;;;;;2.72;1.27;;;;;;;8.93;100.00;99624.00;5029566;28;20072;-81
2023/10/25 08:12:11;;;;;;;4.13;1.70;;;;;;;8.96;100.00;99617.88;5008198;28;20033;-82
2023/10/25 08:14:37;;;;;;;3.58;1.45;;;;;;;8.97;100.00;99606.56;5031156;28;20048;-82
2023/10/25 08:17:02;;;;;;;5.68;2.03;;;;;;;8.99;100.00;99607.34;5008698;28;20136;-82
2023/10/25 08:19:28;;;;;;;3.40;1.50;;;;;;;9.02;100.00;99609.00;5029873;28;20036;-82
2023/10/25 08:21:53;;;;;;;2.53;1.58;;;;;;;9.05;100.00;99604.53;5033870;28;20091;-82
2023/10/25 08:24:18;;;;;;;3.03;1.70;;;;;;;9.07;100.00;99599.25;5030607;28;20033;-82
2023/10/25 08:26:45;;;;;;;4.60;1.70;;;;;;;9.09;100.00;99593.13;5031535;28;20029;-82
2023/10/25 08:29:11;;;;;;;2.83;1.80;;;;;;;9.10;100.00;99593.97;5013054;28;20048;-82
2023/10/25 08:31:36;;;;;;;5.57;1.95;;;;;;;9.10;100.00;99594.81;5030736;28;20477;-82
2023/10/25 08:34:02;;;;;;;2.33;1.70;;;;;;;9.12;100.00;99584.38;5029107;28;20030;-82
2023/10/25 08:36:30;;;;;;;2.78;1.83;;;;;;;9.13;100.00;99580.88;5030151;28;20033;-82
2023/10/25 08:38:56;;;;;;;3.40;1.98;;;;;;;9.17;100.00;99579.84;5029951;28;20533;-82
2023/10/25 08:41:25;;;;;;;4.35;1.98;;;;;;;9.19;100.00;99577.19;5029596;28;20018;-81
2023/10/25 08:43:50;;;;;;;2.75;1.90;;;;;;;9.21;100.00;99576.22;5031211;28;20024;-81
2023/10/25 08:46:18;;;;;;;3.53;1.70;;;;;;;9.25;100.00;99569.16;5030042;28;20022;-81
2023/10/25 08:48:44;;;;;;;4.18;2.13;;;;;;;9.27;100.00;99568.19;5028144;28;20032;-81
2023/10/25 08:51:09;;;;;;;4.82;1.88;;;;;;;9.31;100.00;99560.28;5029885;28;20451;-81
2023/10/25 08:53:35;;;;;;;3.45;1.90;;;;;;;9.33;100.00;99559.28;5025973;28;20040;-82
2023/10/25 08:56:00;;;;;;;6.68;1.90;;;;;;;9.34;100.00;99553.19;5028780;28;20032;-81
2023/10/25 08:58:26;;;;;;;3.92;2.08;;;;;;;9.32;100.00;99548.97;5028423;28;20473;-81
2023/10/25 09:00:54;;;;;;;4.00;2.00;;;;;;;9.32;100.00;99555.00;5031833;28;20094;-82
2023/10/25 09:03:31;;;;;;;3.78;1.98;;;;;;;9.32;100.00;99546.38;5010951;28;20383;-81
2023/10/25 09:06:01;;;;;;;4.43;1.90;;;;;;;9.34;100.00;99549.78;5033366;28;20025;-82
2023/10/25 09:08:27;;;;;;;4.07;1.83;;;;;;;9.35;100.00;99541.91;5045791;28;20102;-82
2023/10/25 09:11:02;;;;;;;4.28;2.05;;;;;;;9.36;100.00;99542.78;5034146;28;20029;-82
2023/10/25 09:13:32;;;;;;;3.83;2.00;;;;;;;9.39;100.00;99540.06;5032786;28;20091;-82
2023/10/25 09:16:04;;;;;;;2.47;1.90;;;;;;;9.40;100.00;99529.59;5037838;28;20108;-82
2023/10/25 09:18:31;;;;;;;4.40;2.03;;;;;;;9.41;100.00;99525.22;5035680;28;20103;-83
2023/10/25 09:20:57;;;;;;;3.78;2.15;;;;;;;9.39;100.00;99514.09;5033185;28;20021;-83
2023/10/25 09:23:23;;;;;;;4.28;2.10;;;;;;;9.37;100.00;99511.53;5032653;28;20021;-83
2023/10/25 09:25:49;;;;;;;5.28;2.17;;;;;;;9.36;100.00;99498.66;5032411;28;20219;-83
2023/10/25 09:28:16;;;;;;;3.42;2.03;;;;;;;9.35;100.00;99499.56;5031730;28;20421;-82
2023/10/25 09:30:42;;;;;;;4.13;2.17;;;;;;;9.35;100.00;99504.75;5032895;28;20031;-82
2023/10/25 09:33:07;;;;;;;6.70;2.80;;;;;;;9.36;100.00;99490.84;5020468;28;20120;-83
2023/10/25 09:35:33;;;;;;;6.32;2.50;;;;;;;9.34;100.00;99492.66;5045989;28;20032;-83
2023/10/25 09:37:59;;;;;;;4.32;2.60;;;;;;;9.35;100.00;99490.00;5033655;28;20037;-82
2023/10/25 09:40:25;;;;;;;4.72;2.33;;;;;;;9.32;100.00;99495.31;5038379;28;20455;-82
2023/10/25 09:42:55;;;;;;;3.42;2.50;;;;;;;9.32;100.00;99497.06;5030331;28;20021;-83
2023/10/25 09:45:28;;;;;;;3.17;2.20;;;;;;;9.32;100.00;99499.69;5032982;28;20384;-83
2023/10/25 09:47:59;;;;;;;4.45;2.40;;;;;;;9.32;100.00;99520.44;5026922;28;20028;-82
2023/10/25 09:50:32;;;;;;;3.28;2.40;;;;;;;9.33;100.00;99514.34;5028717;28;20087;-82
2023/10/25 09:53:08;;;;;;;4.43;2.40;;;;;;;9.34;100.00;99513.44;5030196;28;20405;-83
2023/10/25 09:55:34;;;;;;;4.88;2.33;;;;;;;9.36;100.00;99498.66;5032426;28;20047;-83
2023/10/25 09:58:01;;;;;;;5.68;2.47;;;;;;;9.37;100.00;99492.53;5034886;28;20024;-82
2023/10/25 10:00:28;;;;;;;3.80;2.50;;;;;;;9.37;100.00;99475.22;5037493;28;20361;-82
2023/10/25 10:03:02;;;;;;;4.18;2.42;;;;;;;9.36;100.00;99467.50;5032578;28;20033;-82
2023/10/25 10:05:37;;;;;;;3.97;2.38;;;;;;;9.34;100.00;99461.53;5036428;28;20046;-83
2023/10/25 10:08:14;;;;;;;4.82;2.30;;;;;;;9.31;100.00;99456.47;5031398;28;20036;-83
2023/10/25 10:10:55;;;;;;;3.97;2.30;;;;;;;9.29;100.00;99448.75;5031109;28;20033;-83
2023/10/25 10:13:22;;;;;;;5.68;2.30;;;;;;;9.29;100.00;99453.09;5029615;28;20108;-83
2023/10/25 10:16:01;;;;;;;5.30;2.35;;;;;;;9.28;100.00;99449.66;5008409;28;20029;-83
2023/10/25 10:18:37;;;;;;;4.85;2.28;;;;;;;9.27;100.00;99448.81;5023219;28;20949;-83
2023/10/25 10:21:05;;;;;;;4.30;2.60;;;;;;;9.27;100.00;99448.81;5030947;28;20021;-83
2023/10/25 10:23:43;;;;;;;4.05;2.47;;;;;;;9.25;100.00;99440.22;5028989;28;20017;-82
2023/10/25 10:26:10;;;;;;;5.75;2.40;;;;;;;9.23;100.00;99434.25;5027831;28;20404;-82
2023/10/25 10:28:42;;;;;;;4.93;2.60;;;;;;;9.23;100.00;99434.25;5012360;28;20108;-82
2023/10/25 10:31:10;;;;;;;3.85;2.35;;;;;;;9.21;100.00;99430.06;5026546;28;20036;-82
2023/10/25 10:33:48;;;;;;;5.00;2.70;;;;;;;9.20;100.00;99420.59;5030132;28;20025;-82
2023/10/25 10:36:30;;;;;;;3.63;2.55;;;;;;;9.18;100.00;99410.28;5022912;28;20022;-83
2023/10/25 10:39:15;;;;;;;4.05;2.60;;;;;;;9.17;100.00;99403.41;5001779;28;20042;-83
2023/10/25 10:41:41;;;;;;;4.45;2.45;;;;;;;9.17;100.00;99403.41;5007051;28;20049;-83
2023/10/25 10:44:07;;;;;;;4.63;2.70;;;;;;;9.15;100.00;99394.00;5007890;28;20038;-83
2023/10/25 10:46:40;;;;;;;3.63;2.45;;;;;;;9.15;100.00;99389.66;5005985;28;20433;-82
2023/10/25 10:49:11;;;;;;;5.00;2.40;;;;;;;9.16;100.00;99378.38;5011267;28;20629;-83
2023/10/25 10:51:37;;;;;;;5.43;2.63;;;;;;;9.17;100.00;99377.47;5008489;28;20050;-83
2023/10/25 10:54:02;;;;;;;3.28;2.30;;;;;;;9.17;100.00;99366.22;5009780;28;20056;-83
2023/10/25 10:56:28;;;;;;;5.03;2.42;;;;;;;9.16;100.00;99359.34;5015096;28;20551;-83
2023/10/25 10:58:53;;;;;;;5.72;2.50;;;;;;;9.17;100.00;99353.25;5015089;28;20040;-82
2023/10/25 11:01:18;;;;;;;6.50;2.40;;;;;;;9.16;100.00;99347.22;5006711;28;20025;-83
2023/10/25 11:03:44;;;;;;;3.28;2.35;;;;;;;9.18;100.00;99340.22;5006409;28;20381;-83
2023/10/25 11:06:09;;;;;;;7.57;2.70;;;;;;;9.20;100.00;99346.19;5007278;28;20038;-85
2023/10/25 11:08:35;;;;;;;4.13;2.30;;;;;;;9.20;100.00;99343.59;5005448;28;20033;-83
2023/10/25 11:11:00;;;;;;;3.58;2.40;;;;;;;9.21;100.00;99340.09;5009953;28;20385;-83
2023/10/25 11:13:28;;;;;;;4.18;2.53;;;;;;;9.22;100.00;99326.19;5004213;28;20065;-83
2023/10/25 11:16:06;;;;;;;3.55;2.28;;;;;;;9.23;100.00;99327.88;5001898;28;20057;-83
2023/10/25 11:18:32;;;;;;;3.00;2.10;;;;;;;9.24;100.00;99320.94;5001852;28;20036;-82
2023/10/25 11:20:59;;;;;;;3.92;2.33;;;;;;;9.24;100.00;99316.59;5004071;28;20428;-82
2023/10/25 11:23:25;;;;;;;4.22;1.92;;;;;;;9.26;100.00;99306.97;5005481;28;20029;-83
2023/10/25 11:25:51;;;;;;;5.50;2.03;;;;;;;9.29;100.00;99313.81;5003304;28;20455;-83
2023/10/25 11:28:18;;;;;;;3.50;2.17;;;;;;;9.30;100.00;99306.84;5005868;28;20112;-82